Home   Weather   Turkey   Istanbul   Past weeks
Flag for Turkey

Past Weather in Istanbul, Turkey — August 2019

Currently: 73 °F. Broken clouds. (Weather station: Istanbul Ataturk Airport, Turkey). See more current weather

August 2019 Weather in Istanbul — Graph

°F

High & Low Weather Summary for August 2019

 TemperatureHumidityPressure
High91 °F (Aug 1, 12:50 pm)100% (Aug 18, 1:20 am)30.09 "Hg (Aug 18, 1:20 am)
Low63 °F (Aug 18, 5:20 am)33% (Aug 8, 1:20 pm)29.62 "Hg (Aug 3, 7:20 pm)
Average78 °F66%29.95 "Hg
* Reported Aug 1 12:20 am — Aug 31 11:50 pm, Istanbul. Weather by CustomWeather, © 2021

Note: Actual official high and low records may vary slightly from our data, if they occured in-between our weather recording intervals... More about our weather records

Istanbul Weather History for August 1, 2019

Scroll right to see more
 ConditionsComfort  
Time TempWeatherWind HumidityBarometerVisibility
12:20 am
Thu, Aug 1
79 °FClear.6 mph58%29.80 "Hg10 mi
12:50 am79 °FClear.6 mph58%29.80 "Hg10 mi
1:20 am79 °FClear.6 mph61%29.80 "Hg10 mi
1:50 am79 °FClear.7 mph61%29.80 "Hg10 mi
2:20 am79 °FPassing clouds.7 mph61%29.80 "HgN/A
2:50 am77 °FClear.8 mph69%29.80 "Hg10 mi
3:20 am77 °FClear.7 mph74%29.80 "Hg10 mi
3:50 am77 °FClear.7 mph79%29.80 "Hg10 mi
4:20 am77 °FClear.8 mph79%29.80 "Hg10 mi
4:50 am77 °FClear.8 mph83%29.80 "Hg10 mi
5:20 am77 °FClear.9 mph83%29.83 "Hg10 mi
6:20 am77 °FPassing clouds.8 mph83%29.83 "HgN/A
6:50 am77 °FSunny.8 mph83%29.83 "Hg10 mi
7:20 am79 °FSunny.9 mph79%29.83 "Hg10 mi
7:50 am79 °FPassing clouds.10 mph79%29.83 "HgN/A
8:20 am81 °FSunny.10 mph74%29.83 "Hg10 mi
8:50 am81 °FSunny.8 mph70%29.83 "Hg10 mi
9:20 am82 °FPassing clouds.8 mph62%29.83 "HgN/A
9:50 am84 °FPassing clouds.9 mph62%29.83 "HgN/A
10:20 am86 °FPassing clouds.7 mph52%29.83 "HgN/A
10:50 am88 °FPassing clouds.12 mph46%29.83 "HgN/A
11:20 am88 °FPassing clouds.13 mph43%29.83 "HgN/A
11:50 am88 °FPassing clouds.14 mph40%29.83 "HgN/A
12:20 pm90 °FSunny.14 mph38%29.83 "Hg10 mi
12:50 pm91 °FPassing clouds.14 mph34%29.83 "HgN/A
1:20 pm91 °FPassing clouds.13 mph38%29.83 "HgN/A
1:50 pm91 °FPassing clouds.16 mph41%29.80 "HgN/A
2:20 pm90 °FPassing clouds.16 mph41%29.83 "HgN/A
2:50 pm90 °FPassing clouds.16 mph41%29.83 "HgN/A
3:20 pm90 °FSunny.16 mph38%29.80 "Hg10 mi
3:50 pm90 °FSunny.16 mph43%29.80 "Hg10 mi
4:20 pm90 °FSunny.16 mph43%29.80 "Hg10 mi
4:50 pm88 °FSunny.15 mph49%29.80 "Hg10 mi
5:20 pm88 °FSunny.15 mph52%29.80 "Hg10 mi
5:50 pm86 °FPassing clouds.15 mph52%29.80 "HgN/A
6:20 pm86 °FPassing clouds.16 mph52%29.80 "HgN/A
6:50 pm86 °FSunny.15 mph52%29.83 "Hg10 mi
7:20 pm84 °FSunny.15 mph62%29.83 "Hg10 mi
7:50 pm84 °FSunny.14 mph62%29.83 "Hg10 mi
8:20 pm84 °FSunny.12 mph62%29.83 "Hg10 mi
8:50 pm82 °FClear.9 mph70%29.83 "Hg10 mi
9:20 pm82 °FClear.13 mph70%29.83 "Hg10 mi
9:50 pm81 °FPassing clouds.10 mph79%29.83 "HgN/A
10:20 pm81 °FPassing clouds.12 mph79%29.83 "HgN/A
10:50 pm81 °FPassing clouds.10 mph79%29.83 "HgN/A
11:20 pm81 °FPassing clouds.10 mph79%29.83 "HgN/A
11:50 pm81 °FPassing clouds.10 mph84%29.86 "Hg4 mi
Weather by CustomWeather, © 2021

See weather overview